Kezdőlap
METAR-TAF:

METAR-TAF

Repülőterek :

Cephalonia, Görögország

földrajzi szélesség: 38-07N, földrajzi hosszúság: 020-30E, magasság: 19 m

Jelenlegi meteorológiai megfigyelések

A jelentés 10 perccel ezelõtt készült, 13:50 UTC
Nyugat-délnyugati szél 5 kt
Hőmérséklet 29°C
Páratartalom 70%
Légköri nyomás 1011 hPa
Látótávolság 10 km, vagy több
felhőtlen 1500 m magasságban, és nincs gomolyfelhõ

METAR: LGKF 281350Z 24005KT CAVOK 29/23 Q1011

Idő: 17:00 (14:00 UTC)

Előrejelzés

A jelentés 3 órával és 0 perccel ezelõtt készült, 11:00 UTC
Az előrejelzés 28-én 12 óra UTC és 28-én 21 óra UTC között érvényes
Déli szél 10 kt
Látótávolság 10 km, vagy több
Kevés felhő 1800 lábon
28-én 12 óra UTC és 28-én 16 óra UTC között ideiglenes
Délnyugati szél 10 kt

TAF: LGKF 281100Z 2812/2821 18010KT 9999 FEW018 TEMPO 2812/2816 23010KT

Meteorológiai megfigyelések és előrejelzések több, mint 4000 repülőtéren (METAR és TAF jelentéseket).

A térképen piros és sárga pontok jelzik az elérhető meteorológiai állomásokat.

Mozgassa az egeret a pont fölött, hogy megjelenjen az állomás neve.

Azután kattintson az időjárási megfigyelések és előrejelzések megtekintéséhez.

A térkép megváltoztatása: kattintson a fekete keresztel jelölt zöld gombra ráközelítéshez, a vonallal jelölt zöld gombra távolításhoz, vagy a zöld nyilakra a szomszédos térképek eléréséhez.


METAR-TAF: